sensor_id;sensor_type;location;lat;lon;timestamp;P1;durP1;ratioP1;P2;durP2;ratioP2
72584;SDS011;60618;40.084;32.908;2023-07-08T00:01:12;10.10;;;7.65;;
72584;SDS011;60618;40.084;32.908;2023-07-08T00:03:40;10.13;;;7.38;;
72584;SDS011;60618;40.084;32.908;2023-07-08T00:06:10;8.90;;;7.00;;
72584;SDS011;60618;40.084;32.908;2023-07-08T00:08:42;10.27;;;6.70;;
72584;SDS011;60618;40.084;32.908;2023-07-08T00:11:13;10.60;;;7.40;;
72584;SDS011;60618;40.084;32.908;2023-07-08T00:13:41;10.05;;;7.10;;
72584;SDS011;60618;40.084;32.908;2023-07-08T00:16:17;11.23;;;7.20;;
72584;SDS011;60618;40.084;32.908;2023-07-08T00:18:46;10.98;;;7.28;;
72584;SDS011;60618;40.084;32.908;2023-07-08T00:21:14;11.00;;;7.80;;
72584;SDS011;60618;40.084;32.908;2023-07-08T00:23:49;10.15;;;7.65;;
72584;SDS011;60618;40.084;32.908;2023-07-08T00:26:22;11.07;;;7.40;;
72584;SDS011;60618;40.084;32.908;2023-07-08T00:28:51;10.88;;;7.45;;
72584;SDS011;60618;40.084;32.908;2023-07-08T00:31:19;10.40;;;7.70;;
72584;SDS011;60618;40.084;32.908;2023-07-08T00:33:46;11.30;;;8.10;;
72584;SDS011;60618;40.084;32.908;2023-07-08T00:36:14;11.00;;;7.28;;
72584;SDS011;60618;40.084;32.908;2023-07-08T00:38:42;11.70;;;7.80;;
72584;SDS011;60618;40.084;32.908;2023-07-08T00:41:18;10.43;;;7.03;;
72584;SDS011;60618;40.084;32.908;2023-07-08T00:43:52;10.75;;;7.85;;
72584;SDS011;60618;40.084;32.908;2023-07-08T00:48:59;9.60;;;7.18;;
72584;SDS011;60618;40.084;32.908;2023-07-08T00:51:36;9.38;;;6.90;;
72584;SDS011;60618;40.084;32.908;2023-07-08T00:54:05;12.55;;;7.65;;
72584;SDS011;60618;40.084;32.908;2023-07-08T00:56:44;10.88;;;7.60;;
72584;SDS011;60618;40.084;32.908;2023-07-08T00:59:22;9.87;;;7.20;;
72584;SDS011;60618;40.084;32.908;2023-07-08T01:01:53;11.00;;;8.00;;
72584;SDS011;60618;40.084;32.908;2023-07-08T01:04:25;11.05;;;7.43;;
72584;SDS011;60618;40.084;32.908;2023-07-08T01:06:59;13.45;;;8.23;;
72584;SDS011;60618;40.084;32.908;2023-07-08T01:09:30;9.48;;;7.38;;
72584;SDS011;60618;40.084;32.908;2023-07-08T01:12:03;11.53;;;7.70;;
72584;SDS011;60618;40.084;32.908;2023-07-08T01:14:34;10.30;;;7.47;;
72584;SDS011;60618;40.084;32.908;2023-07-08T01:17:04;11.43;;;8.40;;
72584;SDS011;60618;40.084;32.908;2023-07-08T01:19:31;10.65;;;8.00;;
72584;SDS011;60618;40.084;32.908;2023-07-08T01:24:29;11.57;;;7.73;;
72584;SDS011;60618;40.084;32.908;2023-07-08T01:26:58;10.73;;;7.30;;
72584;SDS011;60618;40.084;32.908;2023-07-08T01:29:27;10.65;;;8.00;;
72584;SDS011;60618;40.084;32.908;2023-07-08T01:31:54;10.55;;;7.55;;
72584;SDS011;60618;40.084;32.908;2023-07-08T01:34:25;10.95;;;8.15;;
72584;SDS011;60618;40.084;32.908;2023-07-08T01:36:54;10.53;;;7.73;;
72584;SDS011;60618;40.084;32.908;2023-07-08T01:39:23;11.15;;;8.07;;
72584;SDS011;60618;40.084;32.908;2023-07-08T01:41:52;11.52;;;8.07;;
72584;SDS011;60618;40.084;32.908;2023-07-08T01:44:23;14.85;;;11.07;;
72584;SDS011;60618;40.084;32.908;2023-07-08T01:46:59;15.85;;;11.10;;
72584;SDS011;60618;40.084;32.908;2023-07-08T01:49:30;15.33;;;10.50;;
72584;SDS011;60618;40.084;32.908;2023-07-08T01:52:00;13.88;;;10.02;;
72584;SDS011;60618;40.084;32.908;2023-07-08T01:54:28;14.30;;;9.20;;
72584;SDS011;60618;40.084;32.908;2023-07-08T01:56:58;13.45;;;8.98;;
72584;SDS011;60618;40.084;32.908;2023-07-08T01:59:25;12.85;;;8.82;;
72584;SDS011;60618;40.084;32.908;2023-07-08T02:01:52;11.93;;;8.53;;
72584;SDS011;60618;40.084;32.908;2023-07-08T02:04:20;15.05;;;9.77;;
72584;SDS011;60618;40.084;32.908;2023-07-08T02:06:51;12.65;;;9.60;;
72584;SDS011;60618;40.084;32.908;2023-07-08T02:09:19;14.68;;;9.98;;
72584;SDS011;60618;40.084;32.908;2023-07-08T02:11:47;14.20;;;9.60;;
72584;SDS011;60618;40.084;32.908;2023-07-08T02:14:14;13.40;;;9.37;;
72584;SDS011;60618;40.084;32.908;2023-07-08T02:16:40;14.07;;;9.40;;
72584;SDS011;60618;40.084;32.908;2023-07-08T02:19:08;15.45;;;9.90;;
72584;SDS011;60618;40.084;32.908;2023-07-08T02:21:39;15.65;;;9.50;;
72584;SDS011;60618;40.084;32.908;2023-07-08T02:24:06;13.55;;;10.32;;
72584;SDS011;60618;40.084;32.908;2023-07-08T02:26:34;13.30;;;9.13;;
72584;SDS011;60618;40.084;32.908;2023-07-08T02:29:01;12.70;;;9.60;;
72584;SDS011;60618;40.084;32.908;2023-07-08T02:31:28;14.32;;;10.18;;
72584;SDS011;60618;40.084;32.908;2023-07-08T02:33:55;13.25;;;9.40;;
72584;SDS011;60618;40.084;32.908;2023-07-08T02:36:21;11.88;;;9.40;;
72584;SDS011;60618;40.084;32.908;2023-07-08T02:38:48;13.03;;;10.33;;
72584;SDS011;60618;40.084;32.908;2023-07-08T02:41:16;12.32;;;9.90;;
72584;SDS011;60618;40.084;32.908;2023-07-08T02:43:43;15.68;;;9.23;;
72584;SDS011;60618;40.084;32.908;2023-07-08T02:46:09;14.50;;;9.23;;
72584;SDS011;60618;40.084;32.908;2023-07-08T02:48:37;13.23;;;9.18;;
72584;SDS011;60618;40.084;32.908;2023-07-08T02:51:04;11.93;;;9.10;;
72584;SDS011;60618;40.084;32.908;2023-07-08T02:53:32;13.88;;;9.50;;
72584;SDS011;60618;40.084;32.908;2023-07-08T02:55:59;12.55;;;9.15;;
72584;SDS011;60618;40.084;32.908;2023-07-08T02:58:26;13.18;;;9.15;;
72584;SDS011;60618;40.084;32.908;2023-07-08T03:00:53;15.25;;;9.88;;
72584;SDS011;60618;40.084;32.908;2023-07-08T03:03:21;13.80;;;9.90;;
72584;SDS011;60618;40.084;32.908;2023-07-08T03:05:58;13.38;;;9.45;;
72584;SDS011;60618;40.084;32.908;2023-07-08T03:08:27;13.38;;;9.52;;
72584;SDS011;60618;40.084;32.908;2023-07-08T03:10:59;13.75;;;9.23;;
72584;SDS011;60618;40.084;32.908;2023-07-08T03:13:28;12.57;;;9.10;;
72584;SDS011;60618;40.084;32.908;2023-07-08T03:15:56;14.60;;;9.20;;
72584;SDS011;60618;40.084;32.908;2023-07-08T03:18:24;14.30;;;8.88;;
72584;SDS011;60618;40.084;32.908;2023-07-08T03:20:55;14.18;;;9.35;;
72584;SDS011;60618;40.084;32.908;2023-07-08T03:23:24;12.43;;;9.35;;
72584;SDS011;60618;40.084;32.908;2023-07-08T03:25:51;12.05;;;9.10;;
72584;SDS011;60618;40.084;32.908;2023-07-08T03:28:18;14.17;;;9.37;;
72584;SDS011;60618;40.084;32.908;2023-07-08T03:30:50;12.38;;;9.10;;
72584;SDS011;60618;40.084;32.908;2023-07-08T03:33:19;12.30;;;9.02;;
72584;SDS011;60618;40.084;32.908;2023-07-08T03:35:46;14.07;;;9.20;;
72584;SDS011;60618;40.084;32.908;2023-07-08T03:38:13;13.65;;;9.07;;
72584;SDS011;60618;40.084;32.908;2023-07-08T03:40:40;14.30;;;8.90;;
72584;SDS011;60618;40.084;32.908;2023-07-08T03:43:07;12.10;;;8.35;;
72584;SDS011;60618;40.084;32.908;2023-07-08T03:45:34;12.88;;;8.77;;
72584;SDS011;60618;40.084;32.908;2023-07-08T03:48:01;11.98;;;8.52;;
72584;SDS011;60618;40.084;32.908;2023-07-08T03:50:28;13.98;;;8.07;;
72584;SDS011;60618;40.084;32.908;2023-07-08T03:52:55;12.30;;;8.77;;
72584;SDS011;60618;40.084;32.908;2023-07-08T03:55:23;9.90;;;7.53;;
72584;SDS011;60618;40.084;32.908;2023-07-08T03:57:50;11.05;;;8.60;;
72584;SDS011;60618;40.084;32.908;2023-07-08T04:00:16;13.20;;;9.85;;
72584;SDS011;60618;40.084;32.908;2023-07-08T04:02:44;13.43;;;9.95;;
72584;SDS011;60618;40.084;32.908;2023-07-08T04:07:43;11.60;;;9.35;;
72584;SDS011;60618;40.084;32.908;2023-07-08T04:10:10;16.25;;;10.00;;
72584;SDS011;60618;40.084;32.908;2023-07-08T04:12:38;13.68;;;9.77;;
72584;SDS011;60618;40.084;32.908;2023-07-08T04:15:06;10.50;;;8.70;;
72584;SDS011;60618;40.084;32.908;2023-07-08T04:17:36;15.83;;;10.10;;
72584;SDS011;60618;40.084;32.908;2023-07-08T04:20:08;13.98;;;9.82;;
72584;SDS011;60618;40.084;32.908;2023-07-08T04:22:35;19.48;;;10.27;;
72584;SDS011;60618;40.084;32.908;2023-07-08T04:25:03;15.70;;;10.60;;
72584;SDS011;60618;40.084;32.908;2023-07-08T04:27:30;17.88;;;9.85;;
72584;SDS011;60618;40.084;32.908;2023-07-08T04:29:57;11.47;;;7.70;;
72584;SDS011;60618;40.084;32.908;2023-07-08T04:32:24;11.13;;;7.50;;
72584;SDS011;60618;40.084;32.908;2023-07-08T04:34:52;12.45;;;8.27;;
72584;SDS011;60618;40.084;32.908;2023-07-08T04:37:19;10.35;;;8.13;;
72584;SDS011;60618;40.084;32.908;2023-07-08T04:39:46;16.80;;;9.30;;
72584;SDS011;60618;40.084;32.908;2023-07-08T04:42:14;23.17;;;10.60;;
72584;SDS011;60618;40.084;32.908;2023-07-08T04:44:41;17.45;;;10.57;;
72584;SDS011;60618;40.084;32.908;2023-07-08T04:47:08;17.65;;;10.05;;
72584;SDS011;60618;40.084;32.908;2023-07-08T04:49:35;14.00;;;9.02;;
72584;SDS011;60618;40.084;32.908;2023-07-08T04:52:02;19.35;;;11.80;;
72584;SDS011;60618;40.084;32.908;2023-07-08T04:54:29;16.57;;;11.07;;
72584;SDS011;60618;40.084;32.908;2023-07-08T04:56:56;11.73;;;8.82;;
72584;SDS011;60618;40.084;32.908;2023-07-08T04:59:24;10.45;;;7.97;;
72584;SDS011;60618;40.084;32.908;2023-07-08T05:01:52;8.85;;;7.28;;
72584;SDS011;60618;40.084;32.908;2023-07-08T05:04:20;17.05;;;8.75;;
72584;SDS011;60618;40.084;32.908;2023-07-08T05:06:48;13.30;;;8.13;;
72584;SDS011;60618;40.084;32.908;2023-07-08T05:09:16;10.50;;;7.80;;
72584;SDS011;60618;40.084;32.908;2023-07-08T05:11:43;13.65;;;8.43;;
72584;SDS011;60618;40.084;32.908;2023-07-08T05:14:11;11.77;;;8.63;;
72584;SDS011;60618;40.084;32.908;2023-07-08T05:16:39;11.15;;;7.68;;
72584;SDS011;60618;40.084;32.908;2023-07-08T05:19:07;13.73;;;8.63;;
72584;SDS011;60618;40.084;32.908;2023-07-08T05:21:34;10.63;;;7.68;;
72584;SDS011;60618;40.084;32.908;2023-07-08T05:24:02;10.75;;;7.88;;
72584;SDS011;60618;40.084;32.908;2023-07-08T05:26:29;9.77;;;7.78;;
72584;SDS011;60618;40.084;32.908;2023-07-08T05:28:57;10.50;;;7.30;;
72584;SDS011;60618;40.084;32.908;2023-07-08T05:31:24;11.57;;;7.73;;
72584;SDS011;60618;40.084;32.908;2023-07-08T05:34:10;10.77;;;7.70;;
72584;SDS011;60618;40.084;32.908;2023-07-08T05:36:37;11.98;;;7.60;;
72584;SDS011;60618;40.084;32.908;2023-07-08T05:39:04;9.55;;;8.10;;
72584;SDS011;60618;40.084;32.908;2023-07-08T05:41:31;13.27;;;8.60;;
72584;SDS011;60618;40.084;32.908;2023-07-08T05:43:58;12.73;;;8.33;;
72584;SDS011;60618;40.084;32.908;2023-07-08T05:46:25;11.32;;;8.10;;
72584;SDS011;60618;40.084;32.908;2023-07-08T05:48:52;12.68;;;8.50;;
72584;SDS011;60618;40.084;32.908;2023-07-08T05:51:20;14.85;;;8.90;;
72584;SDS011;60618;40.084;32.908;2023-07-08T05:53:47;11.82;;;7.22;;
72584;SDS011;60618;40.084;32.908;2023-07-08T05:56:14;11.90;;;8.10;;
72584;SDS011;60618;40.084;32.908;2023-07-08T05:58:41;12.68;;;8.00;;
72584;SDS011;60618;40.084;32.908;2023-07-08T06:01:10;10.05;;;7.20;;
72584;SDS011;60618;40.084;32.908;2023-07-08T06:03:40;12.00;;;7.35;;
72584;SDS011;60618;40.084;32.908;2023-07-08T06:06:07;10.50;;;7.82;;
72584;SDS011;60618;40.084;32.908;2023-07-08T06:08:34;11.90;;;7.57;;
72584;SDS011;60618;40.084;32.908;2023-07-08T06:11:01;15.25;;;9.10;;
72584;SDS011;60618;40.084;32.908;2023-07-08T06:13:29;14.52;;;8.73;;
72584;SDS011;60618;40.084;32.908;2023-07-08T06:15:56;11.13;;;7.72;;
72584;SDS011;60618;40.084;32.908;2023-07-08T06:18:23;12.30;;;7.93;;
72584;SDS011;60618;40.084;32.908;2023-07-08T06:20:53;10.27;;;7.83;;
72584;SDS011;60618;40.084;32.908;2023-07-08T06:23:22;10.13;;;7.30;;
72584;SDS011;60618;40.084;32.908;2023-07-08T06:25:49;9.93;;;7.93;;
72584;SDS011;60618;40.084;32.908;2023-07-08T06:28:16;11.60;;;7.00;;
72584;SDS011;60618;40.084;32.908;2023-07-08T06:30:44;12.40;;;8.05;;
72584;SDS011;60618;40.084;32.908;2023-07-08T06:33:11;12.30;;;7.77;;
72584;SDS011;60618;40.084;32.908;2023-07-08T06:35:40;11.68;;;7.35;;
72584;SDS011;60618;40.084;32.908;2023-07-08T06:38:07;12.32;;;7.53;;
72584;SDS011;60618;40.084;32.908;2023-07-08T06:40:34;10.70;;;7.70;;
72584;SDS011;60618;40.084;32.908;2023-07-08T06:43:02;12.35;;;7.95;;
72584;SDS011;60618;40.084;32.908;2023-07-08T06:45:29;10.57;;;7.43;;
72584;SDS011;60618;40.084;32.908;2023-07-08T06:47:59;11.18;;;7.85;;
72584;SDS011;60618;40.084;32.908;2023-07-08T06:50:29;12.68;;;8.30;;
72584;SDS011;60618;40.084;32.908;2023-07-08T06:52:58;12.30;;;7.15;;
72584;SDS011;60618;40.084;32.908;2023-07-08T06:55:28;11.60;;;7.55;;
72584;SDS011;60618;40.084;32.908;2023-07-08T06:57:55;11.13;;;7.70;;
72584;SDS011;60618;40.084;32.908;2023-07-08T07:00:22;12.10;;;7.22;;
72584;SDS011;60618;40.084;32.908;2023-07-08T07:02:49;14.23;;;7.53;;
72584;SDS011;60618;40.084;32.908;2023-07-08T07:05:19;9.93;;;7.13;;
72584;SDS011;60618;40.084;32.908;2023-07-08T07:07:49;8.88;;;7.40;;
72584;SDS011;60618;40.084;32.908;2023-07-08T07:10:16;11.57;;;7.30;;
72584;SDS011;60618;40.084;32.908;2023-07-08T07:12:43;11.02;;;7.80;;
72584;SDS011;60618;40.084;32.908;2023-07-08T07:15:10;13.38;;;7.47;;
72584;SDS011;60618;40.084;32.908;2023-07-08T07:17:37;13.85;;;8.07;;
72584;SDS011;60618;40.084;32.908;2023-07-08T07:20:04;11.15;;;7.82;;
72584;SDS011;60618;40.084;32.908;2023-07-08T07:22:32;8.87;;;7.00;;
72584;SDS011;60618;40.084;32.908;2023-07-08T07:25:02;13.50;;;8.05;;
72584;SDS011;60618;40.084;32.908;2023-07-08T07:27:32;14.55;;;7.88;;
72584;SDS011;60618;40.084;32.908;2023-07-08T07:29:59;12.98;;;8.10;;
72584;SDS011;60618;40.084;32.908;2023-07-08T07:32:31;12.70;;;8.13;;
72584;SDS011;60618;40.084;32.908;2023-07-08T07:34:58;11.03;;;7.03;;
72584;SDS011;60618;40.084;32.908;2023-07-08T07:37:25;11.57;;;7.32;;
72584;SDS011;60618;40.084;32.908;2023-07-08T07:39:52;8.65;;;6.35;;
72584;SDS011;60618;40.084;32.908;2023-07-08T07:42:19;10.32;;;5.78;;
72584;SDS011;60618;40.084;32.908;2023-07-08T07:44:46;10.00;;;6.70;;
72584;SDS011;60618;40.084;32.908;2023-07-08T07:47:14;11.73;;;7.70;;
72584;SDS011;60618;40.084;32.908;2023-07-08T07:49:41;9.98;;;7.15;;
72584;SDS011;60618;40.084;32.908;2023-07-08T07:52:08;12.27;;;6.88;;
72584;SDS011;60618;40.084;32.908;2023-07-08T07:54:35;9.98;;;7.40;;
72584;SDS011;60618;40.084;32.908;2023-07-08T07:57:02;13.25;;;7.40;;
72584;SDS011;60618;40.084;32.908;2023-07-08T07:59:29;11.93;;;7.63;;
72584;SDS011;60618;40.084;32.908;2023-07-08T08:01:56;8.73;;;6.05;;
72584;SDS011;60618;40.084;32.908;2023-07-08T08:04:23;9.57;;;6.63;;
72584;SDS011;60618;40.084;32.908;2023-07-08T08:06:50;9.15;;;6.13;;
72584;SDS011;60618;40.084;32.908;2023-07-08T08:09:17;8.52;;;6.85;;
72584;SDS011;60618;40.084;32.908;2023-07-08T08:11:43;8.83;;;6.40;;
72584;SDS011;60618;40.084;32.908;2023-07-08T08:14:10;7.93;;;6.30;;
72584;SDS011;60618;40.084;32.908;2023-07-08T08:16:38;9.63;;;6.63;;
72584;SDS011;60618;40.084;32.908;2023-07-08T08:19:05;13.38;;;6.05;;
72584;SDS011;60618;40.084;32.908;2023-07-08T08:21:37;11.57;;;7.13;;
72584;SDS011;60618;40.084;32.908;2023-07-08T08:24:04;9.77;;;6.47;;
72584;SDS011;60618;40.084;32.908;2023-07-08T08:26:31;11.18;;;7.40;;
72584;SDS011;60618;40.084;32.908;2023-07-08T08:29:00;11.07;;;7.10;;
72584;SDS011;60618;40.084;32.908;2023-07-08T08:31:30;11.15;;;8.30;;
72584;SDS011;60618;40.084;32.908;2023-07-08T08:33:57;10.02;;;8.00;;
72584;SDS011;60618;40.084;32.908;2023-07-08T08:36:24;8.87;;;7.10;;
72584;SDS011;60618;40.084;32.908;2023-07-08T08:38:51;10.52;;;7.68;;
72584;SDS011;60618;40.084;32.908;2023-07-08T08:41:19;9.60;;;6.10;;
72584;SDS011;60618;40.084;32.908;2023-07-08T08:43:54;10.20;;;6.10;;
72584;SDS011;60618;40.084;32.908;2023-07-08T08:49:26;11.40;;;6.27;;
72584;SDS011;60618;40.084;32.908;2023-07-08T08:51:59;9.18;;;6.30;;
72584;SDS011;60618;40.084;32.908;2023-07-08T08:54:26;9.10;;;6.28;;
72584;SDS011;60618;40.084;32.908;2023-07-08T08:56:59;7.60;;;6.22;;
72584;SDS011;60618;40.084;32.908;2023-07-08T08:59:52;9.70;;;6.65;;
72584;SDS011;60618;40.084;32.908;2023-07-08T09:05:04;9.80;;;6.13;;
72584;SDS011;60618;40.084;32.908;2023-07-08T09:10:41;9.07;;;6.30;;
72584;SDS011;60618;40.084;32.908;2023-07-08T09:13:33;11.18;;;6.00;;
72584;SDS011;60618;40.084;32.908;2023-07-08T09:17:05;9.83;;;5.90;;
72584;SDS011;60618;40.084;32.908;2023-07-08T09:19:12;8.57;;;5.60;;
72584;SDS011;60618;40.084;32.908;2023-07-08T09:21:55;9.52;;;5.55;;
72584;SDS011;60618;40.084;32.908;2023-07-08T09:27:38;8.18;;;5.70;;
72584;SDS011;60618;40.084;32.908;2023-07-08T09:30:07;7.60;;;4.80;;
72584;SDS011;60618;40.084;32.908;2023-07-08T09:32:40;7.47;;;4.80;;
72584;SDS011;60618;40.084;32.908;2023-07-08T09:35:08;8.05;;;5.63;;
72584;SDS011;60618;40.084;32.908;2023-07-08T09:37:45;7.45;;;5.63;;
72584;SDS011;60618;40.084;32.908;2023-07-08T09:40:15;9.18;;;5.97;;
72584;SDS011;60618;40.084;32.908;2023-07-08T09:42:46;9.07;;;5.93;;
72584;SDS011;60618;40.084;32.908;2023-07-08T09:45:20;8.25;;;5.90;;
72584;SDS011;60618;40.084;32.908;2023-07-08T09:47:54;10.27;;;7.82;;
72584;SDS011;60618;40.084;32.908;2023-07-08T09:50:26;10.45;;;7.28;;
72584;SDS011;60618;40.084;32.908;2023-07-08T09:52:55;9.60;;;6.93;;
72584;SDS011;60618;40.084;32.908;2023-07-08T09:55:29;12.17;;;8.93;;
72584;SDS011;60618;40.084;32.908;2023-07-08T09:57:57;7.63;;;5.90;;
72584;SDS011;60618;40.084;32.908;2023-07-08T10:00:27;8.75;;;5.82;;
72584;SDS011;60618;40.084;32.908;2023-07-08T10:03:00;7.65;;;6.05;;
72584;SDS011;60618;40.084;32.908;2023-07-08T10:05:33;9.45;;;6.15;;
72584;SDS011;60618;40.084;32.908;2023-07-08T10:08:28;11.93;;;7.07;;
72584;SDS011;60618;40.084;32.908;2023-07-08T10:11:03;18.70;;;6.60;;
72584;SDS011;60618;40.084;32.908;2023-07-08T10:13:40;18.77;;;6.65;;
72584;SDS011;60618;40.084;32.908;2023-07-08T10:18:53;15.98;;;6.78;;
72584;SDS011;60618;40.084;32.908;2023-07-08T10:31:53;11.98;;;4.78;;
72584;SDS011;60618;40.084;32.908;2023-07-08T10:52:01;11.02;;;4.75;;
72584;SDS011;60618;40.084;32.908;2023-07-08T11:05:57;9.85;;;5.22;;
72584;SDS011;60618;40.084;32.908;2023-07-08T11:08:33;9.82;;;5.00;;
72584;SDS011;60618;40.084;32.908;2023-07-08T11:13:45;9.57;;;5.97;;
72584;SDS011;60618;40.084;32.908;2023-07-08T11:16:22;8.77;;;5.50;;
72584;SDS011;60618;40.084;32.908;2023-07-08T11:21:38;6.82;;;4.45;;
72584;SDS011;60618;40.084;32.908;2023-07-08T11:27:04;8.15;;;4.47;;
72584;SDS011;60618;40.084;32.908;2023-07-08T11:32:38;6.82;;;4.00;;
72584;SDS011;60618;40.084;32.908;2023-07-08T11:35:07;10.32;;;4.10;;
72584;SDS011;60618;40.084;32.908;2023-07-08T11:37:45;7.55;;;4.18;;
72584;SDS011;60618;40.084;32.908;2023-07-08T11:40:22;8.10;;;4.00;;
72584;SDS011;60618;40.084;32.908;2023-07-08T11:42:50;7.13;;;4.40;;
72584;SDS011;60618;40.084;32.908;2023-07-08T11:45:27;9.13;;;4.70;;
72584;SDS011;60618;40.084;32.908;2023-07-08T11:48:05;7.80;;;4.85;;
72584;SDS011;60618;40.084;32.908;2023-07-08T11:50:42;9.65;;;4.65;;
72584;SDS011;60618;40.084;32.908;2023-07-08T11:53:11;11.82;;;5.10;;
72584;SDS011;60618;40.084;32.908;2023-07-08T11:56:00;6.20;;;3.70;;
72584;SDS011;60618;40.084;32.908;2023-07-08T12:04:00;8.55;;;4.00;;
72584;SDS011;60618;40.084;32.908;2023-07-08T12:06:47;8.35;;;3.80;;
72584;SDS011;60618;40.084;32.908;2023-07-08T12:09:28;7.53;;;3.80;;
72584;SDS011;60618;40.084;32.908;2023-07-08T12:12:02;8.10;;;3.70;;
72584;SDS011;60618;40.084;32.908;2023-07-08T12:14:36;7.78;;;3.63;;
72584;SDS011;60618;40.084;32.908;2023-07-08T12:17:04;6.68;;;3.85;;
72584;SDS011;60618;40.084;32.908;2023-07-08T12:19:36;6.63;;;4.00;;
72584;SDS011;60618;40.084;32.908;2023-07-08T12:22:03;6.67;;;4.00;;
72584;SDS011;60618;40.084;32.908;2023-07-08T12:24:31;7.75;;;4.15;;
72584;SDS011;60618;40.084;32.908;2023-07-08T12:26:58;10.48;;;4.30;;
72584;SDS011;60618;40.084;32.908;2023-07-08T12:29:25;7.25;;;4.20;;
72584;SDS011;60618;40.084;32.908;2023-07-08T12:31:52;7.25;;;3.60;;
72584;SDS011;60618;40.084;32.908;2023-07-08T12:34:19;9.77;;;4.00;;
72584;SDS011;60618;40.084;32.908;2023-07-08T12:36:48;7.10;;;4.20;;
72584;SDS011;60618;40.084;32.908;2023-07-08T12:39:16;6.03;;;3.88;;
72584;SDS011;60618;40.084;32.908;2023-07-08T12:41:45;6.78;;;3.90;;
72584;SDS011;60618;40.084;32.908;2023-07-08T12:44:22;6.03;;;3.60;;
72584;SDS011;60618;40.084;32.908;2023-07-08T12:46:52;8.50;;;4.10;;
72584;SDS011;60618;40.084;32.908;2023-07-08T12:49:20;6.65;;;3.50;;
72584;SDS011;60618;40.084;32.908;2023-07-08T12:51:48;6.05;;;3.42;;
72584;SDS011;60618;40.084;32.908;2023-07-08T12:54:15;5.65;;;3.50;;
72584;SDS011;60618;40.084;32.908;2023-07-08T12:56:42;6.47;;;3.92;;
72584;SDS011;60618;40.084;32.908;2023-07-08T12:59:14;8.47;;;3.67;;
72584;SDS011;60618;40.084;32.908;2023-07-08T13:01:45;6.03;;;3.30;;
72584;SDS011;60618;40.084;32.908;2023-07-08T13:04:14;6.60;;;2.90;;
72584;SDS011;60618;40.084;32.908;2023-07-08T13:06:43;6.07;;;3.00;;
72584;SDS011;60618;40.084;32.908;2023-07-08T13:11:50;7.00;;;3.40;;
72584;SDS011;60618;40.084;32.908;2023-07-08T13:14:18;7.43;;;2.85;;
72584;SDS011;60618;40.084;32.908;2023-07-08T13:16:46;5.63;;;2.70;;
72584;SDS011;60618;40.084;32.908;2023-07-08T13:19:14;4.72;;;2.90;;
72584;SDS011;60618;40.084;32.908;2023-07-08T13:21:41;7.10;;;3.03;;
72584;SDS011;60618;40.084;32.908;2023-07-08T13:24:11;8.40;;;3.30;;
72584;SDS011;60618;40.084;32.908;2023-07-08T13:26:39;6.25;;;3.38;;
72584;SDS011;60618;40.084;32.908;2023-07-08T13:29:11;5.63;;;3.17;;
72584;SDS011;60618;40.084;32.908;2023-07-08T13:31:43;6.53;;;3.40;;
72584;SDS011;60618;40.084;32.908;2023-07-08T13:34:18;8.88;;;5.43;;
72584;SDS011;60618;40.084;32.908;2023-07-08T13:36:49;8.67;;;5.93;;
72584;SDS011;60618;40.084;32.908;2023-07-08T13:42:00;9.10;;;3.45;;
72584;SDS011;60618;40.084;32.908;2023-07-08T13:44:27;6.63;;;4.00;;
72584;SDS011;60618;40.084;32.908;2023-07-08T13:46:58;7.97;;;3.10;;
72584;SDS011;60618;40.084;32.908;2023-07-08T13:49:27;7.40;;;3.97;;
72584;SDS011;60618;40.084;32.908;2023-07-08T13:52:31;6.25;;;3.20;;
72584;SDS011;60618;40.084;32.908;2023-07-08T13:54:52;7.05;;;3.15;;
72584;SDS011;60618;40.084;32.908;2023-07-08T13:57:23;8.00;;;3.10;;
72584;SDS011;60618;40.084;32.908;2023-07-08T13:59:55;7.80;;;3.13;;
72584;SDS011;60618;40.084;32.908;2023-07-08T14:02:26;5.80;;;3.10;;
72584;SDS011;60618;40.084;32.908;2023-07-08T14:04:56;6.68;;;3.70;;
72584;SDS011;60618;40.084;32.908;2023-07-08T14:07:25;6.60;;;3.38;;
72584;SDS011;60618;40.084;32.908;2023-07-08T14:09:57;6.75;;;3.60;;
72584;SDS011;60618;40.084;32.908;2023-07-08T14:12:24;8.48;;;6.00;;
72584;SDS011;60618;40.084;32.908;2023-07-08T14:14:51;11.53;;;6.40;;
72584;SDS011;60618;40.084;32.908;2023-07-08T14:17:22;8.10;;;4.03;;
72584;SDS011;60618;40.084;32.908;2023-07-08T14:19:51;7.25;;;3.97;;
72584;SDS011;60618;40.084;32.908;2023-07-08T14:22:22;5.05;;;3.05;;
72584;SDS011;60618;40.084;32.908;2023-07-08T14:24:58;6.05;;;3.20;;
72584;SDS011;60618;40.084;32.908;2023-07-08T14:27:31;5.57;;;2.90;;
72584;SDS011;60618;40.084;32.908;2023-07-08T14:29:58;4.45;;;2.83;;
72584;SDS011;60618;40.084;32.908;2023-07-08T14:32:27;5.72;;;3.20;;
72584;SDS011;60618;40.084;32.908;2023-07-08T14:47:43;5.13;;;1.70;;
72584;SDS011;60618;40.084;32.908;2023-07-08T14:50:12;4.22;;;1.60;;
72584;SDS011;60618;40.084;32.908;2023-07-08T14:52:41;3.20;;;1.50;;
72584;SDS011;60618;40.084;32.908;2023-07-08T14:55:08;3.30;;;1.45;;
72584;SDS011;60618;40.084;32.908;2023-07-08T14:57:45;5.10;;;1.50;;
72584;SDS011;60618;40.084;32.908;2023-07-08T15:00:16;4.95;;;2.15;;
72584;SDS011;60618;40.084;32.908;2023-07-08T15:02:44;4.32;;;1.50;;
72584;SDS011;60618;40.084;32.908;2023-07-08T15:05:14;5.03;;;2.60;;
72584;SDS011;60618;40.084;32.908;2023-07-08T15:07:51;8.57;;;4.78;;
72584;SDS011;60618;40.084;32.908;2023-07-08T15:10:20;4.65;;;1.98;;
72584;SDS011;60618;40.084;32.908;2023-07-08T15:12:50;4.80;;;2.42;;
72584;SDS011;60618;40.084;32.908;2023-07-08T15:15:19;5.15;;;3.00;;
72584;SDS011;60618;40.084;32.908;2023-07-08T15:17:54;3.73;;;1.60;;
72584;SDS011;60618;40.084;32.908;2023-07-08T15:20:23;6.88;;;4.38;;
72584;SDS011;60618;40.084;32.908;2023-07-08T15:22:51;7.07;;;3.47;;
72584;SDS011;60618;40.084;32.908;2023-07-08T15:25:18;5.10;;;3.08;;
72584;SDS011;60618;40.084;32.908;2023-07-08T15:27:47;5.25;;;2.90;;
72584;SDS011;60618;40.084;32.908;2023-07-08T15:30:21;3.67;;;1.80;;
72584;SDS011;60618;40.084;32.908;2023-07-08T15:32:51;4.47;;;1.40;;
72584;SDS011;60618;40.084;32.908;2023-07-08T15:35:23;4.75;;;1.48;;
72584;SDS011;60618;40.084;32.908;2023-07-08T15:37:54;4.35;;;2.20;;
72584;SDS011;60618;40.084;32.908;2023-07-08T15:40:21;4.45;;;1.83;;
72584;SDS011;60618;40.084;32.908;2023-07-08T15:42:50;4.53;;;1.70;;
72584;SDS011;60618;40.084;32.908;2023-07-08T15:45:22;3.57;;;1.60;;
72584;SDS011;60618;40.084;32.908;2023-07-08T15:47:54;3.65;;;1.70;;
72584;SDS011;60618;40.084;32.908;2023-07-08T15:50:22;3.90;;;1.77;;
72584;SDS011;60618;40.084;32.908;2023-07-08T15:52:52;3.42;;;1.65;;
72584;SDS011;60618;40.084;32.908;2023-07-08T15:55:22;6.63;;;1.90;;
72584;SDS011;60618;40.084;32.908;2023-07-08T15:57:55;3.60;;;1.70;;
72584;SDS011;60618;40.084;32.908;2023-07-08T16:00:28;3.90;;;2.00;;
72584;SDS011;60618;40.084;32.908;2023-07-08T16:02:58;4.70;;;1.80;;
72584;SDS011;60618;40.084;32.908;2023-07-08T16:05:27;7.53;;;1.98;;
72584;SDS011;60618;40.084;32.908;2023-07-08T16:07:55;4.32;;;1.80;;
72584;SDS011;60618;40.084;32.908;2023-07-08T16:10:23;14.20;;;2.63;;
72584;SDS011;60618;40.084;32.908;2023-07-08T16:12:51;6.25;;;2.20;;
72584;SDS011;60618;40.084;32.908;2023-07-08T16:15:28;4.53;;;2.05;;
72584;SDS011;60618;40.084;32.908;2023-07-08T16:17:58;5.15;;;2.00;;